createdAt,value
2018-08-09T00:00:30.259Z,5.00
2018-08-09T00:03:54.887Z,6.60
2018-08-09T00:07:19.410Z,3.87
2018-08-09T00:10:43.834Z,10.00
2018-08-09T00:14:08.308Z,6.97
2018-08-09T00:17:32.763Z,5.87
2018-08-09T00:20:57.611Z,4.78
2018-08-09T00:24:22.087Z,7.28
2018-08-09T00:27:46.485Z,5.17
2018-08-09T00:31:10.899Z,6.95
2018-08-09T00:34:35.323Z,10.35
2018-08-09T00:37:59.793Z,4.58
2018-08-09T00:41:24.226Z,4.35
2018-08-09T00:44:49.057Z,6.60
2018-08-09T00:48:13.521Z,4.95
2018-08-09T00:51:38.280Z,9.80
2018-08-09T00:55:02.744Z,9.00
2018-08-09T00:58:27.207Z,7.10
2018-08-09T01:01:51.662Z,6.78
2018-08-09T01:05:16.088Z,6.90
2018-08-09T01:08:44.590Z,5.45
2018-08-09T01:12:09.038Z,5.75
2018-08-09T01:15:33.531Z,5.95
2018-08-09T01:18:57.987Z,7.22
2018-08-09T01:22:22.515Z,6.72
2018-08-09T01:25:46.919Z,6.33
2018-08-09T01:29:11.504Z,5.92
2018-08-09T01:32:35.924Z,6.90
2018-08-09T01:36:00.550Z,8.23
2018-08-09T01:39:24.938Z,8.53
2018-08-09T01:43:06.229Z,5.62
2018-08-09T01:46:30.825Z,7.17
2018-08-09T01:49:55.267Z,7.67
2018-08-09T01:53:19.718Z,6.62
2018-08-09T01:56:44.172Z,8.23
2018-08-09T02:00:08.603Z,9.00
2018-08-09T02:03:33.039Z,5.90
2018-08-09T02:06:57.436Z,6.50
2018-08-09T02:10:21.880Z,7.72
2018-08-09T02:17:21.829Z,8.00
2018-08-09T02:20:46.226Z,8.55
2018-08-09T02:24:10.689Z,12.95
2018-08-09T02:27:35.124Z,8.85
2018-08-09T02:30:59.873Z,10.23
2018-08-09T02:34:24.329Z,9.78
2018-08-09T02:37:48.782Z,9.45
2018-08-09T02:41:13.194Z,9.48
2018-08-09T02:44:37.713Z,9.40
2018-08-09T02:48:02.203Z,13.98
2018-08-09T02:51:26.934Z,9.03
2018-08-09T02:54:51.394Z,7.83
2018-08-09T02:58:15.807Z,7.53
2018-08-09T03:01:40.222Z,8.55
2018-08-09T03:05:05.081Z,14.90
2018-08-09T03:08:29.511Z,8.35
2018-08-09T03:11:53.928Z,9.33
2018-08-09T03:15:18.535Z,9.38
2018-08-09T03:18:42.930Z,9.40
2018-08-09T03:22:07.419Z,11.83
2018-08-09T03:25:31.842Z,10.00
2018-08-09T03:28:56.263Z,9.95
2018-08-09T03:32:20.750Z,12.30
2018-08-09T03:35:45.172Z,9.93
2018-08-09T03:39:11.203Z,9.55
2018-08-09T03:42:35.593Z,9.20
2018-08-09T03:46:00.023Z,12.23
2018-08-09T03:49:24.613Z,9.83
2018-08-09T03:52:49.031Z,11.55
2018-08-09T03:56:13.451Z,11.48
2018-08-09T03:59:37.941Z,11.57
2018-08-09T04:03:02.347Z,10.45
2018-08-09T04:06:26.760Z,10.45
2018-08-09T04:09:51.173Z,10.13
2018-08-09T04:13:15.660Z,13.18
2018-08-09T04:16:40.162Z,10.70
2018-08-09T04:20:05.217Z,10.50
2018-08-09T04:23:29.662Z,10.80
2018-08-09T04:26:54.083Z,9.80
2018-08-09T04:30:18.516Z,9.45
2018-08-09T04:33:49.742Z,8.10
2018-08-09T04:37:14.165Z,8.20
2018-08-09T04:40:38.599Z,8.95
2018-08-09T04:44:02.983Z,9.75
2018-08-09T04:47:27.371Z,7.55
2018-08-09T04:50:51.821Z,8.50
2018-08-09T04:54:16.239Z,7.40
2018-08-09T04:57:40.761Z,10.00
2018-08-09T05:01:05.307Z,11.08
2018-08-09T05:04:29.797Z,8.48
2018-08-09T05:07:54.311Z,7.17
2018-08-09T05:11:19.078Z,8.65
2018-08-09T05:14:43.503Z,12.63
2018-08-09T05:18:08.197Z,8.30
2018-08-09T05:21:32.625Z,7.25
2018-08-09T05:24:57.041Z,7.78
2018-08-09T05:28:21.497Z,10.65
2018-08-09T05:31:45.940Z,8.70
2018-08-09T05:35:10.462Z,7.15
2018-08-09T05:38:34.929Z,9.08
2018-08-09T05:41:59.368Z,7.35
2018-08-09T05:45:23.795Z,10.15
2018-08-09T05:48:48.309Z,7.30
2018-08-09T05:52:12.729Z,9.58
2018-08-09T05:55:37.127Z,9.58
2018-08-09T05:59:01.549Z,8.45
2018-08-09T06:02:25.954Z,9.18
2018-08-09T06:05:50.422Z,9.03
2018-08-09T06:09:14.884Z,11.50
2018-08-09T06:12:39.311Z,7.83
2018-08-09T06:16:03.820Z,7.35
2018-08-09T06:19:28.324Z,7.53
2018-08-09T06:22:52.814Z,8.18
2018-08-09T06:26:17.265Z,7.65
2018-08-09T06:29:42.301Z,11.20
2018-08-09T06:33:07.393Z,11.63
2018-08-09T06:36:31.863Z,11.00
2018-08-09T06:39:56.338Z,10.03
2018-08-09T06:43:20.769Z,11.97
2018-08-09T06:46:45.183Z,10.08
2018-08-09T06:50:10.849Z,11.18
2018-08-09T06:53:35.245Z,6.92
2018-08-09T06:56:59.659Z,7.12
2018-08-09T07:00:24.145Z,7.08
2018-08-09T07:03:48.578Z,7.50
2018-08-09T07:07:12.960Z,8.58
2018-08-09T07:10:37.397Z,11.33
2018-08-09T07:14:01.822Z,10.95
2018-08-09T07:17:26.261Z,7.78
2018-08-09T07:20:50.723Z,8.20
2018-08-09T07:24:15.230Z,10.05
2018-08-09T07:27:39.731Z,6.70
2018-08-09T07:31:04.248Z,10.40
2018-08-09T07:34:28.872Z,8.58
2018-08-09T07:37:53.271Z,8.53
2018-08-09T07:41:17.769Z,8.23
2018-08-09T07:44:42.205Z,7.65
2018-08-09T07:48:06.667Z,5.65
2018-08-09T07:51:31.218Z,5.80
2018-08-09T07:54:55.659Z,6.40
2018-08-09T07:58:20.089Z,8.95
2018-08-09T08:01:46.813Z,11.80
2018-08-09T08:05:11.316Z,7.45
2018-08-09T08:08:35.742Z,7.42
2018-08-09T08:12:00.224Z,6.70
2018-08-09T08:15:24.711Z,8.45
2018-08-09T08:18:49.133Z,13.62
2018-08-09T08:22:13.582Z,9.65
2018-08-09T08:25:38.361Z,11.00
2018-08-09T08:29:02.812Z,11.15
2018-08-09T08:32:27.248Z,14.60
2018-08-09T08:35:51.660Z,7.55
2018-08-09T08:39:16.108Z,10.43
2018-08-09T08:42:40.687Z,9.00
2018-08-09T08:46:05.377Z,12.58
2018-08-09T08:49:29.832Z,10.98
2018-08-09T08:52:54.315Z,10.23
2018-08-09T08:56:18.824Z,7.53
2018-08-09T08:59:43.266Z,13.95
2018-08-09T09:03:08.018Z,10.38
2018-08-09T09:06:32.498Z,10.00
2018-08-09T09:09:56.931Z,7.72
2018-08-09T09:13:21.924Z,11.25
2018-08-09T09:16:46.341Z,12.10
2018-08-09T09:20:13.849Z,10.58
2018-08-09T09:23:38.342Z,8.88
2018-08-09T09:27:02.871Z,8.90
2018-08-09T09:30:27.250Z,8.70
2018-08-09T09:33:51.654Z,7.47
2018-08-09T09:37:16.065Z,11.83
2018-08-09T09:40:40.512Z,9.18
2018-08-09T09:44:04.955Z,8.38
2018-08-09T09:47:29.544Z,8.80
2018-08-09T09:50:53.970Z,8.15
2018-08-09T09:54:18.367Z,10.05
2018-08-09T09:57:42.807Z,10.78
2018-08-09T10:01:12.443Z,8.85
2018-08-09T10:04:36.892Z,9.80
2018-08-09T10:08:01.525Z,12.95
2018-08-09T10:11:25.964Z,9.90
2018-08-09T10:14:50.500Z,10.23
2018-08-09T10:18:14.906Z,11.97
2018-08-09T10:21:39.330Z,10.85
2018-08-09T10:25:03.777Z,10.85
2018-08-09T10:28:28.229Z,8.63
2018-08-09T10:31:52.650Z,11.08
2018-08-09T10:35:17.092Z,13.58
2018-08-09T10:38:41.549Z,9.60
2018-08-09T10:42:05.966Z,11.43
2018-08-09T10:45:30.385Z,14.85
2018-08-09T10:48:54.794Z,12.03
2018-08-09T10:52:19.220Z,12.60
2018-08-09T10:55:43.656Z,10.18
2018-08-09T10:59:08.381Z,14.03
2018-08-09T11:02:32.815Z,8.90
2018-08-09T11:05:57.224Z,17.35
2018-08-09T11:09:21.649Z,12.28
2018-08-09T11:12:46.071Z,8.53
2018-08-09T11:16:10.914Z,14.40
2018-08-09T11:19:35.330Z,10.03
2018-08-09T11:22:59.722Z,9.58
2018-08-09T11:26:24.130Z,8.98
2018-08-09T11:29:48.597Z,14.13
2018-08-09T11:33:13.031Z,10.48
2018-08-09T11:36:37.558Z,9.25
2018-08-09T11:40:02.055Z,10.63
2018-08-09T11:43:26.462Z,9.58
2018-08-09T11:46:50.896Z,12.70
2018-08-09T11:50:15.337Z,9.15
2018-08-09T11:53:39.789Z,9.55
2018-08-09T11:57:04.326Z,8.60
2018-08-09T12:00:28.683Z,10.25
2018-08-09T12:03:53.177Z,9.25
2018-08-09T12:07:17.625Z,11.33
2018-08-09T12:10:42.029Z,10.03
2018-08-09T12:14:07.118Z,10.20
2018-08-09T12:17:31.573Z,11.50
2018-08-09T12:20:56.038Z,10.20
2018-08-09T12:24:20.528Z,9.95
2018-08-09T12:27:45.014Z,11.93
2018-08-09T12:31:09.523Z,12.65
2018-08-09T12:34:33.936Z,10.58
2018-08-09T12:37:58.390Z,15.55
2018-08-09T12:41:22.877Z,10.50
2018-08-09T12:44:47.310Z,12.80
2018-08-09T12:48:11.759Z,12.90
2018-08-09T12:51:36.227Z,16.57
2018-08-09T12:55:00.686Z,14.80
2018-08-09T12:58:25.174Z,11.00
2018-08-09T13:01:49.657Z,10.63
2018-08-09T13:05:14.063Z,14.15
2018-08-09T13:08:38.514Z,30.20
2018-08-09T13:12:03.005Z,16.23
2018-08-09T13:15:27.663Z,21.57
2018-08-09T13:18:52.115Z,21.80
2018-08-09T13:22:16.738Z,15.72
2018-08-09T13:25:41.210Z,15.85
2018-08-09T13:29:05.875Z,16.05
2018-08-09T13:32:30.445Z,18.60
2018-08-09T13:35:54.870Z,17.32
2018-08-09T13:39:19.337Z,21.68
2018-08-09T13:42:43.821Z,18.12
2018-08-09T13:46:09.250Z,18.57
2018-08-09T13:49:34.054Z,12.03
2018-08-09T13:52:58.578Z,7.40
2018-08-09T13:56:29.678Z,7.53
2018-08-09T13:59:54.155Z,9.20
2018-08-09T14:03:19.027Z,7.28
2018-08-09T14:06:43.555Z,6.17
2018-08-09T14:10:09.204Z,9.35
2018-08-09T14:13:33.827Z,8.45
2018-08-09T14:16:58.987Z,5.62
2018-08-09T14:20:23.463Z,7.95
2018-08-09T14:23:47.984Z,7.15
2018-08-09T14:27:12.414Z,6.15
2018-08-09T14:30:36.984Z,7.92
2018-08-09T14:34:01.595Z,6.92
2018-08-09T14:37:26.114Z,8.23
2018-08-09T14:40:50.549Z,5.17
2018-08-09T14:44:15.056Z,7.40
2018-08-09T14:47:39.682Z,8.65
2018-08-09T14:51:04.144Z,7.10
2018-08-09T14:54:28.646Z,7.80
2018-08-09T14:57:53.081Z,9.20
2018-08-09T15:01:17.831Z,10.75
2018-08-09T15:04:42.268Z,13.22
2018-08-09T15:08:07.152Z,9.43
2018-08-09T15:11:31.568Z,16.75
2018-08-09T15:14:56.133Z,15.00
2018-08-09T15:18:20.628Z,11.03
2018-08-09T15:21:45.249Z,9.13
2018-08-09T15:25:11.586Z,11.50
2018-08-09T15:28:36.406Z,10.50
2018-08-09T15:32:00.913Z,12.07
2018-08-09T15:35:25.364Z,9.90
2018-08-09T15:38:49.779Z,9.68
2018-08-09T15:42:14.270Z,9.70
2018-08-09T15:45:38.734Z,11.12
2018-08-09T15:49:03.212Z,8.98
2018-08-09T15:52:27.709Z,7.95
2018-08-09T15:55:52.227Z,10.53
2018-08-09T15:59:16.706Z,10.50
2018-08-09T16:02:41.218Z,10.93
2018-08-09T16:06:05.641Z,6.12
2018-08-09T16:09:30.030Z,6.87
2018-08-09T16:12:54.501Z,6.50
2018-08-09T16:16:19.235Z,5.65
2018-08-09T16:19:43.623Z,8.23
2018-08-09T16:23:08.315Z,5.87
2018-08-09T16:26:32.903Z,8.30
2018-08-09T16:29:57.382Z,7.60
2018-08-09T16:33:21.865Z,9.28
2018-08-09T16:36:46.308Z,4.12
2018-08-09T16:40:13.668Z,6.47
2018-08-09T16:43:38.109Z,3.83
2018-08-09T16:47:02.605Z,4.22
2018-08-09T16:50:27.208Z,8.38
2018-08-09T16:53:51.710Z,5.40
2018-08-09T16:57:16.376Z,7.37
2018-08-09T17:00:40.848Z,9.40
2018-08-09T17:04:05.283Z,11.35
2018-08-09T17:07:29.714Z,8.13
2018-08-09T17:10:54.164Z,4.90
2018-08-09T17:14:18.618Z,8.38
2018-08-09T17:17:43.137Z,6.58
2018-08-09T17:21:07.948Z,8.95
2018-08-09T17:24:32.528Z,4.35
2018-08-09T17:27:57.054Z,10.72
2018-08-09T17:31:21.487Z,12.40
2018-08-09T17:34:47.235Z,12.40
2018-08-09T17:38:11.739Z,21.07
2018-08-09T17:41:39.014Z,9.70
2018-08-09T17:45:06.267Z,5.60
2018-08-09T17:48:31.140Z,7.35
2018-08-09T17:51:55.760Z,5.60
2018-08-09T17:55:20.613Z,5.92
2018-08-09T17:58:46.061Z,5.55
2018-08-09T18:02:11.807Z,6.12
2018-08-09T18:05:37.885Z,6.83
2018-08-09T18:09:03.352Z,5.75
2018-08-09T18:12:27.955Z,4.50
2018-08-09T18:15:54.541Z,8.65
2018-08-09T18:19:20.065Z,7.28
2018-08-09T18:22:45.865Z,5.95
2018-08-09T18:26:10.765Z,5.53
2018-08-09T18:29:35.350Z,7.35
2018-08-09T18:32:59.916Z,6.97
2018-08-09T18:36:24.610Z,6.40
2018-08-09T18:39:50.414Z,6.90
2018-08-09T18:43:15.549Z,10.38
2018-08-09T18:46:40.228Z,9.43
2018-08-09T18:54:07.958Z,6.40
2018-08-09T18:57:32.619Z,5.45
2018-08-09T19:00:57.204Z,6.42
2018-08-09T19:04:28.125Z,6.60
2018-08-09T19:07:54.260Z,8.38
2018-08-09T19:11:19.833Z,6.60
2018-08-09T19:14:44.533Z,5.50
2018-08-09T19:18:09.881Z,5.12
2018-08-09T19:21:35.356Z,6.42
2018-08-09T19:25:01.446Z,7.42
2018-08-09T19:28:26.416Z,5.30
2018-08-09T19:31:52.475Z,4.47
2018-08-09T19:35:19.402Z,3.75
2018-08-09T19:46:54.900Z,4.78
2018-08-09T19:50:21.622Z,7.58
2018-08-09T19:53:46.642Z,8.33
2018-08-09T19:57:13.088Z,6.90
2018-08-09T20:00:38.017Z,4.33
2018-08-09T20:04:02.961Z,4.37
2018-08-09T20:07:29.206Z,6.80
2018-08-09T20:10:54.733Z,8.55
2018-08-09T20:14:19.659Z,6.60
2018-08-09T20:17:45.687Z,9.88
2018-08-09T20:21:11.680Z,11.40
2018-08-09T20:24:37.468Z,7.12
2018-08-09T20:28:02.391Z,6.05
2018-08-09T20:31:27.388Z,4.05
2018-08-09T20:34:52.526Z,6.62
2018-08-09T20:38:17.198Z,5.53
2018-08-09T20:41:42.501Z,4.03
2018-08-09T20:45:08.766Z,5.25
2018-08-09T20:48:33.244Z,9.25
2018-08-09T20:51:57.712Z,3.55
2018-08-09T20:55:22.196Z,3.02
2018-08-09T20:58:46.698Z,3.95
2018-08-09T21:02:11.341Z,3.27
2018-08-09T21:05:38.016Z,2.67
2018-08-09T21:09:02.606Z,3.15
2018-08-09T21:12:32.071Z,1.90
2018-08-09T21:15:56.559Z,2.02
2018-08-09T21:19:21.018Z,2.22
2018-08-09T21:22:47.027Z,1.45
2018-08-09T21:26:11.548Z,2.85
2018-08-09T21:29:36.179Z,3.33
2018-08-09T21:33:00.711Z,1.98
2018-08-09T21:36:25.149Z,2.47
2018-08-09T21:39:49.615Z,2.00
2018-08-09T21:43:14.094Z,1.50
2018-08-09T21:46:38.526Z,2.77
2018-08-09T21:50:02.998Z,2.12
2018-08-09T21:53:27.485Z,3.20
2018-08-09T21:56:52.045Z,1.80
2018-08-09T22:00:48.584Z,3.08
2018-08-09T22:04:13.037Z,2.40
2018-08-09T22:07:42.707Z,2.27
2018-08-09T22:11:13.351Z,3.42
2018-08-09T22:14:43.702Z,2.08
2018-08-09T22:19:12.033Z,1.50
2018-08-09T22:22:38.346Z,1.87
2018-08-09T22:26:02.779Z,1.20
2018-08-09T22:29:27.205Z,1.40
2018-08-09T22:32:51.877Z,1.15
2018-08-09T22:36:16.563Z,2.05
2018-08-09T22:39:41.069Z,2.25
2018-08-09T22:43:05.563Z,3.47
2018-08-09T22:46:30.055Z,2.20
2018-08-09T22:49:54.531Z,1.02
2018-08-09T22:53:19.156Z,2.95
2018-08-09T22:56:43.568Z,3.42
2018-08-09T23:00:16.795Z,1.12
2018-08-09T23:03:41.241Z,3.02
2018-08-09T23:07:05.954Z,1.30
2018-08-09T23:10:30.416Z,5.00
2018-08-09T23:13:54.868Z,3.47
2018-08-09T23:17:19.407Z,1.87
2018-08-09T23:20:43.990Z,1.50
2018-08-09T23:24:08.496Z,3.37
2018-08-09T23:27:33.279Z,1.80
2018-08-09T23:30:57.772Z,4.25
2018-08-09T23:34:22.221Z,6.03
2018-08-09T23:37:46.861Z,2.75
2018-08-09T23:41:11.408Z,4.60
2018-08-09T23:44:35.886Z,2.08
2018-08-09T23:48:00.406Z,6.03
2018-08-09T23:51:31.714Z,3.62
2018-08-09T23:54:56.355Z,3.42
2018-08-09T23:58:20.824Z,1.72
